createdAt,value
2023-11-14T00:00:15.000Z,16000.0
2023-11-14T00:01:15.000Z,16000.0
2023-11-14T00:02:16.000Z,16000.0
2023-11-14T00:03:15.000Z,16000.0
2023-11-14T00:04:15.000Z,16000.0
2023-11-14T00:05:15.000Z,16000.0
2023-11-14T00:06:15.000Z,16000.0
2023-11-14T00:07:16.000Z,16000.0
2023-11-14T00:08:15.000Z,16000.0
2023-11-14T00:09:15.000Z,16000.0
2023-11-14T00:10:16.000Z,16000.0
2023-11-14T00:11:15.000Z,16000.0
2023-11-14T00:12:15.000Z,16000.0
2023-11-14T00:13:15.000Z,16000.0
2023-11-14T00:14:15.000Z,16000.0
2023-11-14T00:15:16.000Z,16000.0
2023-11-14T00:16:15.000Z,16000.0
2023-11-14T00:17:15.000Z,16000.0
2023-11-14T00:18:15.000Z,16000.0
2023-11-14T00:19:15.000Z,16000.0
2023-11-14T00:20:16.000Z,16000.0
2023-11-14T00:21:15.000Z,16000.0
2023-11-14T00:22:15.000Z,8727.0
2023-11-14T00:23:14.000Z,5967.0
2023-11-14T00:24:15.000Z,7140.0
2023-11-14T00:25:15.000Z,9516.0
2023-11-14T00:26:15.000Z,11616.0
2023-11-14T00:27:15.000Z,13949.0
2023-11-14T00:28:16.000Z,13097.0
2023-11-14T00:29:15.000Z,13913.0
2023-11-14T00:30:15.000Z,16000.0
2023-11-14T00:31:15.000Z,16000.0
2023-11-14T00:32:15.000Z,16000.0
2023-11-14T00:33:16.000Z,16000.0
2023-11-14T00:34:15.000Z,16000.0
2023-11-14T00:35:15.000Z,16000.0
2023-11-14T00:36:16.000Z,16000.0
2023-11-14T00:37:15.000Z,16000.0
2023-11-14T00:38:15.000Z,16000.0
2023-11-14T00:39:15.000Z,16000.0
2023-11-14T00:40:15.000Z,16000.0
2023-11-14T00:41:16.000Z,16000.0
2023-11-14T00:42:15.000Z,16000.0
2023-11-14T00:43:15.000Z,16000.0
2023-11-14T00:44:15.000Z,16000.0
2023-11-14T00:45:15.000Z,16000.0
2023-11-14T00:46:15.000Z,14054.0
2023-11-14T00:47:15.000Z,14611.0
2023-11-14T00:48:15.000Z,15677.0
2023-11-14T00:49:15.000Z,16000.0
2023-11-14T00:50:15.000Z,16000.0
2023-11-14T00:51:15.000Z,16000.0
2023-11-14T00:52:16.000Z,16000.0
2023-11-14T00:53:15.000Z,16000.0
2023-11-14T00:54:15.000Z,16000.0
2023-11-14T00:55:15.000Z,16000.0
2023-11-14T00:56:15.000Z,16000.0
2023-11-14T00:57:15.000Z,16000.0
2023-11-14T00:58:15.000Z,16000.0
2023-11-14T00:59:15.000Z,16000.0
2023-11-14T01:00:16.000Z,16000.0
2023-11-14T01:01:15.000Z,16000.0
2023-11-14T01:02:15.000Z,16000.0
2023-11-14T01:03:15.000Z,16000.0
2023-11-14T01:04:15.000Z,16000.0
2023-11-14T01:05:16.000Z,16000.0
2023-11-14T01:06:15.000Z,16000.0
2023-11-14T01:07:15.000Z,16000.0
2023-11-14T01:08:14.000Z,16000.0
2023-11-14T01:09:15.000Z,16000.0
2023-11-14T01:10:15.000Z,16000.0
2023-11-14T01:11:15.000Z,16000.0
2023-11-14T01:12:15.000Z,16000.0
2023-11-14T01:13:16.000Z,16000.0
2023-11-14T01:14:15.000Z,16000.0
2023-11-14T01:15:15.000Z,16000.0
2023-11-14T01:16:15.000Z,16000.0
2023-11-14T01:17:15.000Z,16000.0
2023-11-14T01:18:16.000Z,16000.0
2023-11-14T01:19:15.000Z,16000.0
2023-11-14T01:20:15.000Z,16000.0
2023-11-14T01:21:14.000Z,16000.0
2023-11-14T01:22:15.000Z,16000.0
2023-11-14T01:23:15.000Z,16000.0
2023-11-14T01:24:15.000Z,16000.0
2023-11-14T01:25:15.000Z,16000.0
2023-11-14T01:26:16.000Z,16000.0
2023-11-14T01:27:15.000Z,16000.0
2023-11-14T01:28:15.000Z,16000.0
2023-11-14T01:29:15.000Z,16000.0
2023-11-14T01:30:15.000Z,16000.0
2023-11-14T01:31:16.000Z,16000.0
2023-11-14T01:32:15.000Z,16000.0
2023-11-14T01:33:15.000Z,16000.0
2023-11-14T01:34:14.000Z,16000.0
2023-11-14T01:35:15.000Z,16000.0
2023-11-14T01:36:15.000Z,16000.0
2023-11-14T01:37:15.000Z,16000.0
2023-11-14T01:38:15.000Z,16000.0
2023-11-14T01:39:16.000Z,16000.0
2023-11-14T01:40:15.000Z,16000.0
2023-11-14T01:41:15.000Z,16000.0
2023-11-14T01:42:15.000Z,16000.0
2023-11-14T01:43:15.000Z,16000.0
2023-11-14T01:44:16.000Z,16000.0
2023-11-14T01:45:15.000Z,16000.0
2023-11-14T01:46:15.000Z,16000.0
2023-11-14T01:47:16.000Z,16000.0
2023-11-14T01:48:15.000Z,16000.0
2023-11-14T01:49:15.000Z,16000.0
2023-11-14T01:50:16.000Z,16000.0
2023-11-14T01:51:15.000Z,16000.0
2023-11-14T01:52:15.000Z,16000.0
2023-11-14T01:53:15.000Z,16000.0
2023-11-14T01:54:15.000Z,16000.0
2023-11-14T01:55:16.000Z,16000.0
2023-11-14T01:56:15.000Z,16000.0
2023-11-14T01:57:15.000Z,16000.0
2023-11-14T01:58:16.000Z,16000.0
2023-11-14T01:59:15.000Z,16000.0
2023-11-14T02:00:15.000Z,16000.0
2023-11-14T02:01:15.000Z,16000.0
2023-11-14T02:02:15.000Z,16000.0
2023-11-14T02:03:16.000Z,16000.0
2023-11-14T02:04:15.000Z,16000.0
2023-11-14T02:05:15.000Z,15358.0
2023-11-14T02:06:14.000Z,15306.0
2023-11-14T02:07:15.000Z,15772.0
2023-11-14T02:08:15.000Z,15770.0
2023-11-14T02:09:15.000Z,16000.0
2023-11-14T02:10:15.000Z,15931.0
2023-11-14T02:11:16.000Z,15419.0
2023-11-14T02:12:15.000Z,16000.0
2023-11-14T02:13:15.000Z,16000.0
2023-11-14T02:14:15.000Z,16000.0
2023-11-14T02:15:15.000Z,16000.0
2023-11-14T02:16:16.000Z,16000.0
2023-11-14T02:17:15.000Z,16000.0
2023-11-14T02:18:15.000Z,16000.0
2023-11-14T02:19:14.000Z,16000.0
2023-11-14T02:20:15.000Z,16000.0
2023-11-14T02:21:15.000Z,16000.0
2023-11-14T02:22:15.000Z,16000.0
2023-11-14T02:23:15.000Z,16000.0
2023-11-14T02:24:16.000Z,16000.0
2023-11-14T02:25:15.000Z,16000.0
2023-11-14T02:26:15.000Z,16000.0
2023-11-14T02:27:15.000Z,16000.0
2023-11-14T02:28:15.000Z,16000.0
2023-11-14T02:29:16.000Z,16000.0
2023-11-14T02:30:15.000Z,16000.0
2023-11-14T02:31:15.000Z,16000.0
2023-11-14T02:32:14.000Z,16000.0
2023-11-14T02:33:15.000Z,16000.0
2023-11-14T02:34:15.000Z,16000.0
2023-11-14T02:35:15.000Z,16000.0
2023-11-14T02:36:15.000Z,16000.0
2023-11-14T02:37:16.000Z,16000.0
2023-11-14T02:38:15.000Z,16000.0
2023-11-14T02:39:15.000Z,16000.0
2023-11-14T02:40:15.000Z,16000.0
2023-11-14T02:41:15.000Z,16000.0
2023-11-14T02:42:16.000Z,16000.0
2023-11-14T02:43:15.000Z,16000.0
2023-11-14T02:44:15.000Z,16000.0
2023-11-14T02:45:14.000Z,16000.0
2023-11-14T02:46:15.000Z,16000.0
2023-11-14T02:47:15.000Z,16000.0
2023-11-14T02:48:15.000Z,16000.0
2023-11-14T02:49:15.000Z,16000.0
2023-11-14T02:50:15.000Z,16000.0
2023-11-14T02:51:15.000Z,16000.0
2023-11-14T02:52:15.000Z,16000.0
2023-11-14T02:53:16.000Z,16000.0
2023-11-14T02:54:15.000Z,16000.0
2023-11-14T02:55:15.000Z,16000.0
2023-11-14T02:56:14.000Z,16000.0
2023-11-14T02:57:15.000Z,16000.0
2023-11-14T02:58:15.000Z,16000.0
2023-11-14T02:59:15.000Z,16000.0
2023-11-14T03:00:15.000Z,16000.0
2023-11-14T03:01:16.000Z,16000.0
2023-11-14T03:02:15.000Z,16000.0
2023-11-14T03:03:15.000Z,16000.0
2023-11-14T03:04:15.000Z,16000.0
2023-11-14T03:05:15.000Z,16000.0
2023-11-14T03:06:16.000Z,16000.0
2023-11-14T03:07:15.000Z,16000.0
2023-11-14T03:08:15.000Z,16000.0
2023-11-14T03:09:14.000Z,16000.0
2023-11-14T03:10:15.000Z,16000.0
2023-11-14T03:11:15.000Z,16000.0
2023-11-14T03:12:15.000Z,16000.0
2023-11-14T03:13:15.000Z,16000.0
2023-11-14T03:14:16.000Z,16000.0
2023-11-14T03:15:15.000Z,16000.0
2023-11-14T03:16:15.000Z,16000.0
2023-11-14T03:17:15.000Z,15225.0
2023-11-14T03:18:15.000Z,12916.0
2023-11-14T03:19:15.000Z,13254.0
2023-11-14T03:20:15.000Z,16000.0
2023-11-14T03:21:15.000Z,16000.0
2023-11-14T03:22:14.000Z,16000.0
2023-11-14T03:23:15.000Z,12387.0
2023-11-14T03:24:15.000Z,14100.0
2023-11-14T03:25:15.000Z,14957.0
2023-11-14T03:26:15.000Z,16000.0
2023-11-14T03:27:16.000Z,16000.0
2023-11-14T03:28:15.000Z,16000.0
2023-11-14T03:29:15.000Z,16000.0
2023-11-14T03:30:14.000Z,16000.0
2023-11-14T03:31:15.000Z,16000.0
2023-11-14T03:32:16.000Z,11125.0
2023-11-14T03:33:15.000Z,9517.0
2023-11-14T03:34:15.000Z,9658.0
2023-11-14T03:35:16.000Z,11174.0
2023-11-14T03:36:15.000Z,12295.0
2023-11-14T03:37:15.000Z,10305.0
2023-11-14T03:38:15.000Z,8201.0
2023-11-14T03:39:15.000Z,9005.0
2023-11-14T03:40:16.000Z,10882.0
2023-11-14T03:41:15.000Z,9860.0
2023-11-14T03:42:15.000Z,10726.0
2023-11-14T03:43:15.000Z,11906.0
2023-11-14T03:44:15.000Z,14380.0
2023-11-14T03:45:15.000Z,16000.0
2023-11-14T03:46:15.000Z,16000.0
2023-11-14T03:47:15.000Z,16000.0
2023-11-14T03:48:14.000Z,16000.0
2023-11-14T03:49:15.000Z,16000.0
2023-11-14T03:50:15.000Z,16000.0
2023-11-14T03:51:16.000Z,14489.0
2023-11-14T03:52:15.000Z,13408.0
2023-11-14T03:53:15.000Z,14411.0
2023-11-14T03:54:15.000Z,13055.0
2023-11-14T03:55:15.000Z,10489.0
2023-11-14T03:56:15.000Z,8033.0
2023-11-14T03:57:15.000Z,7296.0
2023-11-14T03:58:15.000Z,6732.0
2023-11-14T03:59:14.000Z,7186.0
2023-11-14T04:00:15.000Z,8120.0
2023-11-14T04:01:15.000Z,7907.0
2023-11-14T04:02:15.000Z,8064.0
2023-11-14T04:03:15.000Z,8359.0
2023-11-14T04:04:16.000Z,6119.0
2023-11-14T04:05:15.000Z,6729.0
2023-11-14T04:06:15.000Z,7772.0
2023-11-14T04:07:14.000Z,9000.0
2023-11-14T04:08:15.000Z,11288.0
2023-11-14T04:09:15.000Z,11601.0
2023-11-14T04:10:15.000Z,11932.0
2023-11-14T04:11:15.000Z,12739.0
2023-11-14T04:12:16.000Z,14279.0
2023-11-14T04:13:15.000Z,14350.0
2023-11-14T04:14:15.000Z,15969.0
2023-11-14T04:15:15.000Z,16000.0
2023-11-14T04:16:15.000Z,16000.0
2023-11-14T04:17:16.000Z,16000.0
2023-11-14T04:18:15.000Z,16000.0
2023-11-14T04:19:15.000Z,16000.0
2023-11-14T04:20:14.000Z,16000.0
2023-11-14T04:21:15.000Z,16000.0
2023-11-14T04:22:15.000Z,16000.0
2023-11-14T04:23:15.000Z,16000.0
2023-11-14T04:24:15.000Z,16000.0
2023-11-14T04:25:14.000Z,16000.0
2023-11-14T04:26:15.000Z,16000.0
2023-11-14T04:27:15.000Z,16000.0
2023-11-14T04:28:15.000Z,16000.0
2023-11-14T04:29:15.000Z,16000.0
2023-11-14T04:30:16.000Z,16000.0
2023-11-14T04:31:15.000Z,16000.0
2023-11-14T04:32:15.000Z,16000.0
2023-11-14T04:33:14.000Z,16000.0
2023-11-14T04:34:15.000Z,16000.0
2023-11-14T04:35:15.000Z,16000.0
2023-11-14T04:36:15.000Z,16000.0
2023-11-14T04:37:15.000Z,16000.0
2023-11-14T04:38:16.000Z,16000.0
2023-11-14T04:39:15.000Z,16000.0
2023-11-14T04:40:15.000Z,16000.0
2023-11-14T04:41:15.000Z,16000.0
2023-11-14T04:42:15.000Z,16000.0
2023-11-14T04:43:16.000Z,16000.0
2023-11-14T04:44:15.000Z,16000.0
2023-11-14T04:45:15.000Z,16000.0
2023-11-14T04:46:14.000Z,16000.0
2023-11-14T04:47:15.000Z,16000.0
2023-11-14T04:48:15.000Z,16000.0
2023-11-14T04:49:14.000Z,16000.0
2023-11-14T04:50:15.000Z,16000.0
2023-11-14T04:51:15.000Z,16000.0
2023-11-14T04:52:15.000Z,16000.0
2023-11-14T04:53:15.000Z,16000.0
2023-11-14T04:54:16.000Z,16000.0
2023-11-14T04:55:15.000Z,16000.0
2023-11-14T04:56:15.000Z,16000.0
2023-11-14T04:57:14.000Z,16000.0
2023-11-14T04:58:15.000Z,16000.0
2023-11-14T04:59:15.000Z,16000.0
2023-11-14T05:00:15.000Z,16000.0
2023-11-14T05:01:15.000Z,16000.0
2023-11-14T05:02:14.000Z,16000.0
2023-11-14T05:03:15.000Z,16000.0
2023-11-14T05:04:15.000Z,16000.0
2023-11-14T05:05:15.000Z,16000.0
2023-11-14T05:06:15.000Z,16000.0
2023-11-14T05:07:16.000Z,16000.0
2023-11-14T05:08:15.000Z,16000.0
2023-11-14T05:09:15.000Z,16000.0
2023-11-14T05:10:14.000Z,16000.0
2023-11-14T05:11:15.000Z,16000.0
2023-11-14T05:12:15.000Z,16000.0
2023-11-14T05:13:15.000Z,16000.0
2023-11-14T05:14:15.000Z,16000.0
2023-11-14T05:15:16.000Z,16000.0
2023-11-14T05:16:15.000Z,16000.0
2023-11-14T05:17:15.000Z,16000.0
2023-11-14T05:18:15.000Z,16000.0
2023-11-14T05:19:15.000Z,16000.0
2023-11-14T05:20:16.000Z,16000.0
2023-11-14T05:21:15.000Z,16000.0
2023-11-14T05:22:15.000Z,16000.0
2023-11-14T05:23:14.000Z,16000.0
2023-11-14T05:24:15.000Z,16000.0
2023-11-14T05:25:15.000Z,16000.0
2023-11-14T05:26:15.000Z,16000.0
2023-11-14T05:27:15.000Z,16000.0
2023-11-14T05:28:16.000Z,16000.0
2023-11-14T05:29:15.000Z,16000.0
2023-11-14T05:30:15.000Z,16000.0
2023-11-14T05:31:15.000Z,16000.0
2023-11-14T05:32:15.000Z,16000.0
2023-11-14T05:33:16.000Z,16000.0
2023-11-14T05:34:15.000Z,16000.0
2023-11-14T05:35:15.000Z,16000.0
2023-11-14T05:36:14.000Z,16000.0
2023-11-14T05:37:15.000Z,16000.0
2023-11-14T05:38:15.000Z,16000.0
2023-11-14T05:39:15.000Z,16000.0
2023-11-14T05:40:15.000Z,16000.0
2023-11-14T05:41:16.000Z,16000.0
2023-11-14T05:42:15.000Z,16000.0
2023-11-14T05:43:15.000Z,16000.0
2023-11-14T05:44:15.000Z,16000.0
2023-11-14T05:45:15.000Z,16000.0
2023-11-14T05:46:15.000Z,16000.0
2023-11-14T05:47:15.000Z,16000.0
2023-11-14T05:48:15.000Z,16000.0
2023-11-14T05:49:15.000Z,16000.0
2023-11-14T05:50:15.000Z,16000.0
2023-11-14T05:51:15.000Z,16000.0
2023-11-14T05:52:16.000Z,16000.0
2023-11-14T05:53:15.000Z,16000.0
2023-11-14T05:54:15.000Z,16000.0
2023-11-14T05:55:15.000Z,16000.0
2023-11-14T05:56:15.000Z,16000.0
2023-11-14T05:57:15.000Z,16000.0
2023-11-14T05:58:15.000Z,16000.0
2023-11-14T05:59:15.000Z,16000.0
2023-11-14T06:00:16.000Z,16000.0
2023-11-14T06:01:15.000Z,16000.0
2023-11-14T06:02:15.000Z,16000.0
2023-11-14T06:03:15.000Z,16000.0
2023-11-14T06:04:15.000Z,16000.0
2023-11-14T06:05:16.000Z,16000.0
2023-11-14T06:06:15.000Z,16000.0
2023-11-14T06:07:15.000Z,16000.0
2023-11-14T06:08:14.000Z,16000.0
2023-11-14T06:09:15.000Z,16000.0
2023-11-14T06:10:15.000Z,16000.0
2023-11-14T06:11:15.000Z,16000.0
2023-11-14T06:12:15.000Z,16000.0
2023-11-14T06:13:14.000Z,16000.0
2023-11-14T06:14:15.000Z,16000.0
2023-11-14T06:15:15.000Z,16000.0
2023-11-14T06:16:15.000Z,16000.0
2023-11-14T06:17:15.000Z,16000.0
2023-11-14T06:18:16.000Z,16000.0
2023-11-14T06:19:15.000Z,16000.0
2023-11-14T06:20:15.000Z,16000.0
2023-11-14T06:21:14.000Z,16000.0
2023-11-14T06:22:15.000Z,16000.0
2023-11-14T06:23:15.000Z,16000.0
2023-11-14T06:24:15.000Z,16000.0
2023-11-14T06:25:15.000Z,16000.0
2023-11-14T06:26:16.000Z,16000.0
2023-11-14T06:27:15.000Z,16000.0
2023-11-14T06:28:15.000Z,16000.0
2023-11-14T06:29:15.000Z,16000.0
2023-11-14T06:30:15.000Z,16000.0
2023-11-14T06:31:16.000Z,16000.0
2023-11-14T06:32:15.000Z,16000.0
2023-11-14T06:33:15.000Z,16000.0
2023-11-14T06:34:14.000Z,16000.0
2023-11-14T06:35:15.000Z,16000.0
2023-11-14T06:36:15.000Z,16000.0
2023-11-14T06:37:15.000Z,16000.0
2023-11-14T06:38:15.000Z,16000.0
2023-11-14T06:39:14.000Z,16000.0
2023-11-14T06:40:15.000Z,16000.0
2023-11-14T06:41:15.000Z,16000.0
2023-11-14T06:42:15.000Z,16000.0
2023-11-14T06:43:15.000Z,16000.0
2023-11-14T06:44:16.000Z,16000.0
2023-11-14T06:45:15.000Z,16000.0
2023-11-14T06:46:15.000Z,16000.0
2023-11-14T06:47:14.000Z,16000.0
2023-11-14T06:48:15.000Z,16000.0
2023-11-14T06:49:15.000Z,16000.0
2023-11-14T06:50:14.000Z,16000.0
2023-11-14T06:51:15.000Z,16000.0
2023-11-14T06:52:15.000Z,16000.0
2023-11-14T06:53:15.000Z,16000.0
2023-11-14T06:54:15.000Z,16000.0
2023-11-14T06:55:16.000Z,16000.0
2023-11-14T06:56:15.000Z,16000.0
2023-11-14T06:57:15.000Z,16000.0
2023-11-14T06:58:14.000Z,16000.0
2023-11-14T06:59:15.000Z,16000.0
2023-11-14T07:00:15.000Z,16000.0
2023-11-14T07:01:15.000Z,16000.0
2023-11-14T07:02:15.000Z,16000.0
2023-11-14T07:03:16.000Z,16000.0
2023-11-14T07:04:15.000Z,16000.0
2023-11-14T07:05:15.000Z,16000.0
2023-11-14T07:06:14.000Z,16000.0
2023-11-14T07:07:15.000Z,16000.0
2023-11-14T07:08:15.000Z,16000.0
2023-11-14T07:09:15.000Z,16000.0
2023-11-14T07:10:15.000Z,16000.0
2023-11-14T07:11:14.000Z,16000.0
2023-11-14T07:12:15.000Z,16000.0
2023-11-14T07:13:15.000Z,16000.0
2023-11-14T07:14:15.000Z,16000.0
2023-11-14T07:15:15.000Z,16000.0
2023-11-14T07:16:16.000Z,16000.0
2023-11-14T07:17:15.000Z,16000.0
2023-11-14T07:18:15.000Z,16000.0
2023-11-14T07:19:14.000Z,16000.0
2023-11-14T07:20:15.000Z,16000.0
2023-11-14T07:21:15.000Z,16000.0
2023-11-14T07:22:15.000Z,16000.0
2023-11-14T07:23:15.000Z,16000.0
2023-11-14T07:24:14.000Z,16000.0
2023-11-14T07:25:15.000Z,16000.0
2023-11-14T07:26:15.000Z,16000.0
2023-11-14T07:27:15.000Z,16000.0
2023-11-14T07:28:15.000Z,16000.0
2023-11-14T07:29:16.000Z,16000.0
2023-11-14T07:30:15.000Z,16000.0
2023-11-14T07:31:15.000Z,16000.0
2023-11-14T07:32:14.000Z,16000.0
2023-11-14T07:33:15.000Z,16000.0
2023-11-14T07:34:15.000Z,16000.0
2023-11-14T07:35:15.000Z,16000.0
2023-11-14T07:36:15.000Z,16000.0
2023-11-14T07:37:14.000Z,16000.0
2023-11-14T07:38:15.000Z,16000.0
2023-11-14T07:39:15.000Z,16000.0
2023-11-14T07:40:15.000Z,16000.0
2023-11-14T07:41:15.000Z,16000.0
2023-11-14T07:42:16.000Z,16000.0
2023-11-14T07:43:15.000Z,16000.0
2023-11-14T07:44:15.000Z,16000.0
2023-11-14T07:45:14.000Z,16000.0
2023-11-14T07:46:15.000Z,16000.0
2023-11-14T07:47:15.000Z,16000.0
2023-11-14T07:48:15.000Z,16000.0
2023-11-14T07:49:15.000Z,16000.0
2023-11-14T07:50:15.000Z,16000.0
2023-11-14T07:51:15.000Z,16000.0
2023-11-14T07:52:15.000Z,16000.0
2023-11-14T07:53:16.000Z,16000.0
2023-11-14T07:54:15.000Z,16000.0
2023-11-14T07:55:15.000Z,16000.0
2023-11-14T07:56:14.000Z,16000.0
2023-11-14T07:57:15.000Z,16000.0
2023-11-14T07:58:15.000Z,16000.0
2023-11-14T07:59:15.000Z,16000.0
2023-11-14T08:00:15.000Z,16000.0
2023-11-14T08:01:14.000Z,16000.0
2023-11-14T08:02:15.000Z,16000.0
2023-11-14T08:03:15.000Z,16000.0
2023-11-14T08:04:15.000Z,16000.0
2023-11-14T08:05:15.000Z,16000.0
2023-11-14T08:06:16.000Z,16000.0
2023-11-14T08:07:15.000Z,16000.0
2023-11-14T08:08:15.000Z,16000.0
2023-11-14T08:09:14.000Z,16000.0
2023-11-14T08:10:15.000Z,16000.0
2023-11-14T08:11:15.000Z,16000.0
2023-11-14T08:12:15.000Z,16000.0
2023-11-14T08:13:15.000Z,16000.0
2023-11-14T08:14:16.000Z,16000.0
2023-11-14T08:15:15.000Z,16000.0
2023-11-14T08:16:15.000Z,16000.0
2023-11-14T08:17:15.000Z,16000.0
2023-11-14T08:18:15.000Z,16000.0
2023-11-14T08:19:15.000Z,16000.0
2023-11-14T08:20:15.000Z,16000.0
2023-11-14T08:21:15.000Z,16000.0
2023-11-14T08:22:14.000Z,16000.0
2023-11-14T08:23:15.000Z,16000.0
2023-11-14T08:24:15.000Z,16000.0
2023-11-14T08:25:15.000Z,16000.0
2023-11-14T08:26:15.000Z,16000.0
2023-11-14T08:27:14.000Z,16000.0
2023-11-14T08:28:15.000Z,16000.0
2023-11-14T08:29:15.000Z,16000.0
2023-11-14T08:30:14.000Z,16000.0
2023-11-14T08:31:15.000Z,16000.0
2023-11-14T08:32:16.000Z,16000.0
2023-11-14T08:33:15.000Z,16000.0
2023-11-14T08:34:15.000Z,16000.0
2023-11-14T08:35:14.000Z,16000.0
2023-11-14T08:36:15.000Z,16000.0
2023-11-14T08:37:15.000Z,16000.0
2023-11-14T08:38:15.000Z,16000.0
2023-11-14T08:39:15.000Z,16000.0
2023-11-14T08:40:16.000Z,16000.0
2023-11-14T08:41:15.000Z,16000.0
2023-11-14T08:42:15.000Z,16000.0
2023-11-14T08:43:15.000Z,16000.0
2023-11-14T08:44:15.000Z,16000.0
2023-11-14T08:45:15.000Z,16000.0
2023-11-14T08:46:15.000Z,16000.0
2023-11-14T08:47:15.000Z,16000.0
2023-11-14T08:48:14.000Z,16000.0
2023-11-14T08:49:15.000Z,16000.0
2023-11-14T08:50:15.000Z,16000.0
2023-11-14T08:51:14.000Z,16000.0
2023-11-14T08:52:15.000Z,16000.0
2023-11-14T08:53:15.000Z,16000.0
2023-11-14T08:54:15.000Z,16000.0
2023-11-14T08:55:15.000Z,16000.0
2023-11-14T08:56:15.000Z,16000.0
2023-11-14T08:57:15.000Z,16000.0
2023-11-14T08:58:15.000Z,16000.0
2023-11-14T08:59:14.000Z,16000.0
2023-11-14T09:00:15.000Z,16000.0
2023-11-14T09:01:15.000Z,16000.0
2023-11-14T09:02:15.000Z,16000.0
2023-11-14T09:03:15.000Z,16000.0
2023-11-14T09:04:14.000Z,16000.0
2023-11-14T09:05:15.000Z,16000.0
2023-11-14T09:06:15.000Z,16000.0
2023-11-14T09:07:14.000Z,16000.0
2023-11-14T09:08:15.000Z,16000.0
2023-11-14T09:09:15.000Z,16000.0
2023-11-14T09:10:15.000Z,16000.0
2023-11-14T09:11:15.000Z,16000.0
2023-11-14T09:12:14.000Z,16000.0
2023-11-14T09:13:15.000Z,16000.0
2023-11-14T09:14:15.000Z,16000.0
2023-11-14T09:15:15.000Z,16000.0
2023-11-14T09:16:15.000Z,16000.0
2023-11-14T09:17:16.000Z,16000.0
2023-11-14T09:18:15.000Z,16000.0
2023-11-14T09:19:15.000Z,16000.0
2023-11-14T09:20:14.000Z,16000.0
2023-11-14T09:21:15.000Z,16000.0
2023-11-14T09:22:15.000Z,16000.0
2023-11-14T09:23:15.000Z,16000.0
2023-11-14T09:24:15.000Z,16000.0
2023-11-14T09:25:14.000Z,16000.0
2023-11-14T09:26:15.000Z,16000.0
2023-11-14T09:27:15.000Z,16000.0
2023-11-14T09:28:15.000Z,16000.0
2023-11-14T09:29:15.000Z,16000.0
2023-11-14T09:30:14.000Z,16000.0
2023-11-14T09:31:15.000Z,16000.0
2023-11-14T09:32:15.000Z,16000.0
2023-11-14T09:33:14.000Z,16000.0
2023-11-14T09:34:15.000Z,16000.0
2023-11-14T09:35:15.000Z,16000.0
2023-11-14T09:36:15.000Z,16000.0
2023-11-14T09:37:15.000Z,16000.0
2023-11-14T09:38:14.000Z,16000.0
2023-11-14T09:39:15.000Z,16000.0
2023-11-14T09:40:15.000Z,16000.0
2023-11-14T09:41:15.000Z,16000.0
2023-11-14T09:42:15.000Z,16000.0
2023-11-14T09:43:16.000Z,16000.0
2023-11-14T09:44:15.000Z,16000.0
2023-11-14T09:45:15.000Z,16000.0
2023-11-14T09:46:14.000Z,16000.0
2023-11-14T09:47:15.000Z,16000.0
2023-11-14T09:48:15.000Z,13933.0
2023-11-14T09:49:14.000Z,15212.0
2023-11-14T09:50:15.000Z,15271.0
2023-11-14T09:51:15.000Z,13789.0
2023-11-14T09:52:15.000Z,12682.0
2023-11-14T09:53:15.000Z,15420.0
2023-11-14T09:54:16.000Z,16000.0
2023-11-14T09:55:15.000Z,16000.0
2023-11-14T09:56:15.000Z,16000.0
2023-11-14T09:57:14.000Z,16000.0
2023-11-14T09:58:15.000Z,16000.0
2023-11-14T09:59:15.000Z,16000.0
2023-11-14T10:00:15.000Z,16000.0
2023-11-14T10:01:15.000Z,16000.0
2023-11-14T10:02:14.000Z,16000.0
2023-11-14T10:03:15.000Z,16000.0
2023-11-14T10:04:15.000Z,16000.0
2023-11-14T10:05:15.000Z,16000.0
2023-11-14T10:06:15.000Z,16000.0
2023-11-14T10:07:16.000Z,16000.0
2023-11-14T10:08:15.000Z,16000.0
2023-11-14T10:09:15.000Z,16000.0
2023-11-14T10:10:14.000Z,16000.0
2023-11-14T10:11:15.000Z,16000.0
2023-11-14T10:12:15.000Z,16000.0
2023-11-14T10:13:15.000Z,16000.0
2023-11-14T10:14:15.000Z,16000.0
2023-11-14T10:15:14.000Z,16000.0
2023-11-14T10:16:15.000Z,16000.0
2023-11-14T10:17:15.000Z,16000.0
2023-11-14T10:18:15.000Z,16000.0
2023-11-14T10:19:15.000Z,16000.0
2023-11-14T10:20:16.000Z,16000.0
2023-11-14T10:21:15.000Z,16000.0
2023-11-14T10:22:15.000Z,16000.0
2023-11-14T10:23:14.000Z,16000.0
2023-11-14T10:24:15.000Z,16000.0
2023-11-14T10:25:15.000Z,16000.0
2023-11-14T10:26:15.000Z,16000.0
2023-11-14T10:27:15.000Z,16000.0
2023-11-14T10:28:14.000Z,16000.0
2023-11-14T10:29:15.000Z,16000.0
2023-11-14T10:30:15.000Z,16000.0
2023-11-14T10:31:15.000Z,16000.0
2023-11-14T10:32:15.000Z,16000.0
2023-11-14T10:33:16.000Z,16000.0
2023-11-14T10:34:15.000Z,16000.0
2023-11-14T10:35:15.000Z,16000.0
2023-11-14T10:36:14.000Z,16000.0
2023-11-14T10:37:15.000Z,16000.0
2023-11-14T10:38:15.000Z,16000.0
2023-11-14T10:39:15.000Z,16000.0
2023-11-14T10:40:15.000Z,16000.0
2023-11-14T10:41:14.000Z,16000.0
2023-11-14T10:42:15.000Z,16000.0
2023-11-14T10:43:15.000Z,16000.0
2023-11-14T10:44:15.000Z,16000.0
2023-11-14T10:45:15.000Z,16000.0
2023-11-14T10:46:15.000Z,16000.0
2023-11-14T10:47:15.000Z,16000.0
2023-11-14T10:48:15.000Z,16000.0
2023-11-14T10:49:15.000Z,16000.0
2023-11-14T10:50:15.000Z,16000.0
2023-11-14T10:51:15.000Z,16000.0
2023-11-14T10:52:14.000Z,16000.0
2023-11-14T10:53:15.000Z,16000.0
2023-11-14T10:54:15.000Z,16000.0
2023-11-14T10:55:15.000Z,16000.0
2023-11-14T10:56:15.000Z,16000.0
2023-11-14T10:57:15.000Z,16000.0
2023-11-14T10:58:15.000Z,16000.0
2023-11-14T10:59:15.000Z,16000.0
2023-11-14T11:00:14.000Z,16000.0
2023-11-14T11:01:15.000Z,16000.0
2023-11-14T11:02:15.000Z,16000.0
2023-11-14T11:03:15.000Z,16000.0
2023-11-14T11:04:15.000Z,16000.0
2023-11-14T11:05:16.000Z,16000.0
2023-11-14T11:06:15.000Z,16000.0
2023-11-14T11:07:15.000Z,16000.0
2023-11-14T11:08:14.000Z,16000.0
2023-11-14T11:09:15.000Z,16000.0
2023-11-14T11:10:15.000Z,16000.0
2023-11-14T11:11:15.000Z,16000.0
2023-11-14T11:12:15.000Z,16000.0
2023-11-14T11:13:14.000Z,16000.0
2023-11-14T11:14:15.000Z,16000.0
2023-11-14T11:15:15.000Z,16000.0
2023-11-14T11:16:15.000Z,16000.0
2023-11-14T11:17:15.000Z,16000.0
2023-11-14T11:18:14.000Z,16000.0
2023-11-14T11:19:15.000Z,16000.0
2023-11-14T11:20:15.000Z,16000.0
2023-11-14T11:21:14.000Z,16000.0
2023-11-14T11:22:15.000Z,16000.0
2023-11-14T11:23:15.000Z,16000.0
2023-11-14T11:24:15.000Z,16000.0
2023-11-14T11:25:15.000Z,16000.0
2023-11-14T11:26:14.000Z,16000.0
2023-11-14T11:27:15.000Z,16000.0
2023-11-14T11:28:15.000Z,16000.0
2023-11-14T11:29:15.000Z,16000.0
2023-11-14T11:30:15.000Z,16000.0
2023-11-14T11:31:16.000Z,16000.0
2023-11-14T11:32:15.000Z,16000.0
2023-11-14T11:33:15.000Z,16000.0
2023-11-14T11:34:14.000Z,16000.0
2023-11-14T11:35:15.000Z,16000.0
2023-11-14T11:36:15.000Z,16000.0
2023-11-14T11:37:15.000Z,16000.0
2023-11-14T11:38:15.000Z,16000.0
2023-11-14T11:39:14.000Z,16000.0
2023-11-14T11:40:15.000Z,16000.0
2023-11-14T11:41:15.000Z,16000.0
2023-11-14T11:42:15.000Z,16000.0
2023-11-14T11:43:15.000Z,16000.0
2023-11-14T11:44:14.000Z,16000.0
2023-11-14T11:45:15.000Z,16000.0
2023-11-14T11:46:15.000Z,16000.0
2023-11-14T11:47:14.000Z,16000.0
2023-11-14T11:48:15.000Z,16000.0
2023-11-14T11:49:15.000Z,16000.0
2023-11-14T11:50:14.000Z,16000.0
2023-11-14T11:51:15.000Z,16000.0
2023-11-14T11:52:15.000Z,16000.0
2023-11-14T11:53:15.000Z,16000.0
2023-11-14T11:54:15.000Z,16000.0
2023-11-14T11:55:16.000Z,16000.0
2023-11-14T11:56:15.000Z,16000.0
2023-11-14T11:57:15.000Z,16000.0
2023-11-14T11:58:14.000Z,16000.0
2023-11-14T11:59:15.000Z,16000.0
2023-11-14T12:00:15.000Z,16000.0
2023-11-14T12:01:15.000Z,16000.0
2023-11-14T12:02:15.000Z,16000.0
2023-11-14T12:03:14.000Z,16000.0
2023-11-14T12:04:15.000Z,16000.0
2023-11-14T12:05:15.000Z,16000.0
2023-11-14T12:06:14.000Z,16000.0